Latest Weather Observations for Wyndham Airport

IDW60801

Issued at 4:05 am WST Wednesday 26 November 2014 (issued every 30 minutes, with the page automatically refreshed every 10 minutes)

About weather observations | Map of weather stations | Latest weather observations for WA | Other Formats
Station Details ID: 001006 Name: WYNDHAM AERO Lat: -15.51 Lon: 128.15 Height: 3.8 m
Data from the previous 72 hours. | See also: Recent months for locations in Western Australia
Date/Time
WST
Temp
°C
App
Temp
°C
Dew
Point
Rel
Hum
%
Delta-T
°C
Wind Press
QNH
hPa
Press
MSL
hPa
Rain
since 9 am
mm
Dir
 
Spd
km/h
Gust
km/h
Spd
kts
Gust
kts
26/04:00am 24.7 30.0 23.1 91 1.1 CALM 0 0 0 0 1009.0 1009.0 13.6
26/03:30am 24.4 28.6 23.4 94 0.7 S 7 17 4 9 1008.7 1008.7 13.4
26/03:00am 24.1 25.9 22.5 91 1.1 SSW 17 22 9 12 1008.7 1008.7 12.6
26/02:30am 26.7 28.2 21.2 72 3.6 SSE 15 20 8 11 1008.2 1008.2 11.8
26/02:00am 26.6 28.0 21.8 75 3.2 SE 17 19 9 10 1007.6 1007.6 11.8
26/01:30am 26.8 31.0 20.9 70 3.9 CALM 0 0 0 0 1006.8 1006.8 11.8
26/01:00am 27.0 27.6 21.1 70 3.9 E 19 26 10 14 1007.0 1007.0 11.8
26/12:30am 28.0 27.4 20.6 64 4.9 NE 24 32 13 17 1006.6 1006.6 11.8
26/12:00am 27.9 26.5 20.5 64 4.9 NE 28 41 15 22 1006.9 1006.9 11.8
 
Date/Time
WST
Temp
°C
App
Temp
°C
Dew
Point
Rel
Hum
%
Delta-T
°C
Wind Press
QNH
hPa
Press
MSL
hPa
Rain
since 9 am
mm
Dir
 
Spd
km/h
Gust
km/h
Spd
kts
Gust
kts
25/11:30pm 28.3 28.7 23.7 76 3.2 E 28 43 15 23 1007.9 1007.9 11.8
25/11:00pm 27.4 28.7 24.0 82 2.3 E 24 30 13 16 1008.3 1008.3 11.8
25/10:51pm 27.5 28.0 23.9 81 2.5 E 28 37 15 20 1008.2 1008.2 11.8
25/10:30pm 27.1 30.3 24.4 85 1.9 E 15 17 8 9 1006.8 1006.8 11.8
25/10:00pm 26.6 30.2 24.4 88 1.5 ESE 13 17 7 9 1006.8 1006.8 11.8
25/09:30pm 26.5 30.2 24.5 89 1.4 SE 13 15 7 8 1007.0 1007.0 11.8
25/09:00pm 26.4 30.1 24.6 90 1.3 ESE 13 19 7 10 1006.8 1006.8 11.8
25/08:30pm 26.8 30.9 24.5 87 1.6 E 11 13 6 7 1006.7 1006.7 11.8
25/08:00pm 26.6 30.9 24.3 87 1.6 ESE 9 11 5 6 1006.1 1006.1 11.8
25/07:30pm 26.8 31.5 24.3 86 1.7 ENE 7 9 4 5 1005.9 1005.9 11.8
25/07:00pm 27.0 31.0 23.7 82 2.3 S 9 11 5 6 1006.0 1006.0 11.8
25/06:30pm 27.3 33.1 24.0 82 2.3 CALM 0 0 0 0 1005.9 1005.9 11.8
25/06:00pm 27.1 33.1 24.2 84 2.0 CALM 0 0 0 0 1005.4 1005.4 11.8
25/05:30pm 27.1 31.4 23.3 80 2.6 WNW 6 9 3 5 1005.1 1005.1 11.8
25/05:00pm 26.6 29.6 23.3 82 2.3 WSW 13 19 7 10 1004.9 1004.9 11.8
25/04:30pm 27.2 29.9 23.4 80 2.6 WSW 15 17 8 9 1005.0 1005.0 11.6
25/04:00pm 27.9 30.5 23.3 76 3.2 NNW 15 19 8 10 1005.4 1005.4 11.2
25/03:30pm 26.0 29.0 24.0 89 1.4 N 15 19 8 10 1005.8 1005.8 11.2
25/03:00pm 25.0 28.2 25.0 100 0.0 W 17 22 9 12 1006.3 1006.3 11.2
25/02:39pm 23.7 21.0 23.7 100 0.0 WSW 44 63 24 34 1006.7 1006.7 10.0
25/02:30pm 23.8 21.2 23.5 98 0.2 SW 43 59 23 32 1007.8 1007.8 6.0
25/02:29pm 24.0 21.4 23.5 97 0.3 SSW 43 50 23 27 1007.8 1007.8 5.0
25/02:19pm 25.8 22.0 21.7 78 2.7 S 44 72 24 39 1006.5 1006.5 0.2
25/02:10pm 31.5 26.9 20.8 53 7.1 SSE 46 70 25 38 1006.3 1006.3 0.0
25/02:09pm 31.5 25.2 19.8 49 7.7 SE 52 70 28 38 1006.1 1006.1 0.0
25/02:04pm 32.6 24.7 16.8 38 10.0 SE 54 63 29 34 1005.7 1005.7 0.0
25/02:01pm 35.7 32.4 17.9 35 11.6 SSE 32 54 17 29 1005.6 1005.6 0.0
25/02:00pm 36.3 37.4 19.7 37 11.1 SSW 13 26 7 14 1005.3 1005.3 0.0
25/01:30pm 36.3 35.7 19.7 37 11.1 ENE 22 32 12 17 1005.3 1005.3 0.0
25/01:00pm 36.9 36.9 19.8 36 11.5 S 19 26 10 14 1005.7 1005.7 0.0
25/12:30pm 38.7 39.7 19.5 32 12.8 W 13 20 7 11 1005.7 1005.7 0.0
25/12:00pm 38.1 39.9 20.4 35 12.0 WNW 11 19 6 10 1006.2 1006.2 0.0
25/11:30am 37.0 39.3 19.9 36 11.4 W 7 13 4 7 1006.7 1006.7 0.0
25/11:00am 35.8 38.0 20.5 41 10.3 ESE 9 15 5 8 1007.5 1007.5 0.0
25/10:30am 35.2 37.9 20.7 42 9.8 ESE 7 15 4 8 1008.3 1008.3 0.0
25/10:00am 34.0 36.6 20.4 45 9.1 SE 7 13 4 7 1008.9 1008.9 0.0
25/09:30am 33.1 35.6 20.3 47 8.5 NNW 7 11 4 6 1009.3 1009.3 0.0
25/09:00am 32.5 34.7 20.4 49 8.1 WNW 9 15 5 8 1009.3 1009.3 0.2
25/08:30am 32.3 34.5 20.5 49 7.9 W 9 11 5 6 1009.4 1009.4 0.2
25/08:00am 32.4 34.9 21.0 51 7.7 NNW 9 11 5 6 1009.3 1009.3 0.2
25/07:30am 32.4 34.5 21.0 51 7.6 NW 11 15 6 8 1008.9 1008.9 0.2
25/07:00am 31.4 33.3 21.3 55 6.8 WNW 13 17 7 9 1008.5 1008.5 0.0
25/06:30am 30.9 33.0 21.7 58 6.2 W 13 17 7 9 1008.5 1008.5 0.0
25/06:00am 29.9 35.1 23.6 69 4.4 NE 2 7 1 4 1008.5 1008.5 0.0
25/05:30am 29.2 34.1 24.3 75 3.4 ESE 6 9 3 5 1008.1 1008.1 0.0
25/05:00am 29.0 33.2 24.1 75 3.4 E 9 11 5 6 1007.5 1007.5 0.0
25/04:30am 29.0 32.8 24.1 75 3.4 ESE 11 15 6 8 1006.9 1006.9 0.0
25/04:00am 29.0 33.5 23.9 74 3.5 E 7 9 4 5 1006.6 1006.6 0.0
25/03:30am 28.9 34.3 23.8 74 3.5 ESE 2 7 1 4 1006.2 1006.2 0.0
25/03:00am 28.5 33.1 24.1 77 3.1 E 7 9 4 5 1006.4 1006.4 0.0
25/02:30am 28.9 33.0 24.0 75 3.4 ESE 9 13 5 7 1006.6 1006.6 0.0
25/02:00am 28.8 32.4 23.7 74 3.5 ESE 11 15 6 8 1006.5 1006.5 0.0
25/01:30am 29.2 32.5 23.2 70 4.1 ESE 11 17 6 9 1006.7 1006.7 0.0
25/01:00am 30.4 36.1 23.8 68 4.6 CALM 0 6 0 3 1007.1 1007.1 0.0
25/12:30am 30.7 35.0 23.6 66 4.9 NNE 7 9 4 5 1007.2 1007.2 0.0
25/12:00am 30.6 32.5 23.8 67 4.7 N 20 28 11 15 1006.8 1006.8 0.0
 
Date/Time
WST
Temp
°C
App
Temp
°C
Dew
Point
Rel
Hum
%
Delta-T
°C
Wind Press
QNH
hPa
Press
MSL
hPa
Rain
since 9 am
mm
Dir
 
Spd
km/h
Gust
km/h
Spd
kts
Gust
kts
24/11:30pm 30.7 33.0 23.4 65 5.0 N 17 20 9 11 1007.6 1007.6 0.0
24/11:00pm 30.7 33.4 23.4 65 5.0 N 15 22 8 12 1008.2 1008.2 0.0
24/10:30pm 30.6 33.2 23.3 65 5.0 NE 15 19 8 10 1008.8 1008.8 0.0
24/10:00pm 29.8 31.9 23.7 70 4.2 ENE 19 24 10 13 1009.4 1009.4 0.0
24/09:30pm 29.4 30.8 23.6 71 4.0 SE 22 28 12 15 1010.1 1010.1 0.0
24/09:00pm 30.3 33.2 23.2 65 4.9 NE 13 19 7 10 1009.5 1009.5 0.0
24/08:30pm 30.4 33.1 22.8 64 5.2 NE 13 19 7 10 1009.3 1009.3 0.0
24/08:00pm 30.6 30.4 22.7 62 5.4 E 28 43 15 23 1009.2 1009.2 0.0
24/07:59pm 30.7 30.2 22.8 62 5.4 E 30 43 16 23 1009.1 1009.1 0.0
24/07:51pm 31.3 28.9 22.6 60 5.9 SE 39 50 21 27 1008.6 1008.6 0.0
24/07:30pm 31.7 33.7 21.5 54 6.9 NNE 13 22 7 12 1007.2 1007.2 0.0
24/07:00pm 31.6 33.4 22.6 59 6.2 NNW 17 20 9 11 1007.1 1007.1 0.0
24/06:30pm 31.5 32.7 22.5 59 6.1 NNE 20 28 11 15 1007.1 1007.1 0.0
24/06:00pm 32.0 32.2 22.1 55 6.7 NE 24 35 13 19 1006.9 1006.9 0.0
24/05:57pm 32.0 31.1 22.1 55 6.7 NE 30 48 16 26 1006.7 1006.7 0.0
24/05:30pm 32.4 31.4 21.9 54 7.1 ENE 30 41 16 22 1006.6 1006.6 0.0
24/05:00pm 34.0 32.1 22.1 50 8.2 N 35 48 19 26 1005.2 1005.2 0.0
24/04:30pm 35.4 34.6 21.6 44 9.4 NNE 28 41 15 22 1004.9 1004.9 0.0
24/04:15pm 36.6 35.4 20.8 39 10.7 NNE 28 37 15 20 1004.4 1004.4 0.0
24/04:00pm 41.2 40.6 14.5 21 16.9 W 11 17 6 9 1004.3 1004.3 0.0
24/03:30pm 40.9 40.4 15.0 22 16.4 SW 11 20 6 11 1004.2 1004.2 0.0
24/03:00pm 41.4 41.1 15.4 22 16.7 SSW 11 22 6 12 1004.1 1004.1 0.0
24/02:30pm 41.8 40.8 15.7 21 16.8 SW 15 24 8 13 1004.1 1004.1 0.0
24/02:00pm 40.9 40.7 15.7 23 16.2 SSW 11 17 6 9 1004.4 1004.4 0.0
24/01:30pm 40.9 39.9 15.7 23 16.1 SW 15 20 8 11 1004.9 1004.9 0.0
24/01:00pm 40.9 40.2 16.3 23 15.9 S 15 28 8 15 1005.6 1005.6 0.0
24/12:30pm 39.8 38.5 16.7 26 14.9 SW 19 28 10 15 1006.3 1006.3 0.0
24/12:00pm 40.8 41.7 17.5 25 15.3 W 9 20 5 11 1006.9 1006.9 0.0
24/11:30am 39.3 38.9 16.2 25 14.8 WSW 13 20 7 11 1007.8 1007.8 0.0
24/11:00am 39.8 38.7 17.3 27 14.7 SSE 19 26 10 14 1008.5 1008.5 0.0
24/10:30am 38.4 37.9 17.7 29 13.5 S 17 30 9 16 1009.0 1009.0 0.0
24/10:00am 38.4 37.4 18.8 32 13.0 SSW 22 28 12 15 1009.4 1009.4 0.0
24/09:30am 37.4 36.6 18.4 32 12.5 W 20 28 11 15 1009.7 1009.7 0.0
24/09:00am 37.1 37.2 19.1 35 11.9 WSW 17 26 9 14 1010.0 1010.0 1.0
24/08:30am 36.2 36.3 20.0 38 10.8 W 19 22 10 12 1010.4 1010.4 1.0
24/08:00am 34.7 36.8 21.0 44 9.3 WSW 11 15 6 8 1010.4 1010.4 1.0
24/07:30am 33.8 36.0 21.2 47 8.5 W 11 15 6 8 1010.3 1010.3 1.0
24/07:00am 32.8 35.1 21.3 50 7.8 W 11 15 6 8 1010.2 1010.2 1.0
24/06:30am 32.3 35.1 21.5 53 7.3 W 9 13 5 7 1010.1 1010.1 1.0
24/06:00am 31.3 33.9 22.0 57 6.3 W 11 13 6 7 1009.8 1009.8 1.0
24/05:30am 30.5 33.6 22.1 61 5.7 W 9 11 5 6 1009.4 1009.4 1.0
24/05:00am 29.8 33.1 22.5 65 5.0 W 9 11 5 6 1009.0 1009.0 1.0
24/04:30am 29.8 32.7 22.5 65 5.0 WNW 11 13 6 7 1008.7 1008.7 1.0
24/04:00am 30.1 33.0 22.5 63 5.2 W 11 13 6 7 1008.4 1008.4 1.0
24/03:30am 30.2 33.2 22.6 63 5.2 W 11 13 6 7 1008.3 1008.3 1.0
24/03:00am 30.4 33.2 22.3 62 5.5 W 11 13 6 7 1008.3 1008.3 1.0
24/02:30am 30.5 32.1 22.1 61 5.7 WNW 17 20 9 11 1008.4 1008.4 1.0
24/02:00am 30.5 32.4 22.1 61 5.7 WNW 15 19 8 10 1008.5 1008.5 1.0
24/01:30am 30.6 32.8 21.9 59 5.9 W 13 17 7 9 1008.4 1008.4 1.0
24/01:00am 30.8 31.7 21.6 58 6.2 W 19 22 10 12 1008.3 1008.3 1.0
24/12:30am 30.4 32.6 21.8 60 5.8 W 13 15 7 8 1008.3 1008.3 1.0
24/12:00am 30.6 32.8 21.9 59 5.9 W 13 17 7 9 1008.5 1008.5 1.0
 
Date/Time
WST
Temp
°C
App
Temp
°C
Dew
Point
Rel
Hum
%
Delta-T
°C
Wind Press
QNH
hPa
Press
MSL
hPa
Rain
since 9 am
mm
Dir
 
Spd
km/h
Gust
km/h
Spd
kts
Gust
kts
23/11:30pm 31.0 32.2 20.0 52 7.3 NW 13 17 7 9 1008.7 1008.7 1.0
23/11:00pm 30.8 33.1 21.3 57 6.4 WNW 11 13 6 7 1009.0 1009.0 1.0
23/10:30pm 31.3 33.7 21.5 56 6.6 WNW 11 13 6 7 1009.2 1009.2 1.0
23/10:00pm 31.4 34.5 22.1 57 6.3 W 9 13 5 7 1009.3 1009.3 1.0
23/09:30pm 31.2 33.8 20.5 53 7.1 NW 7 9 4 5 1009.1 1009.1 1.0
23/09:00pm 31.7 34.6 20.6 51 7.4 W 6 9 3 5 1008.9 1008.9 1.0
23/08:30pm 32.1 35.0 21.0 52 7.4 NW 7 11 4 6 1008.9 1008.9 1.0
23/08:00pm 32.0 34.4 21.5 53 7.1 N 11 15 6 8 1008.7 1008.7 1.0
23/07:30pm 32.4 33.8 21.9 54 7.1 N 17 24 9 13 1008.2 1008.2 1.0
23/07:00pm 32.4 33.7 21.6 53 7.3 N 17 20 9 11 1007.6 1007.6 1.0
23/06:30pm 32.7 33.1 20.6 49 8.1 N 19 24 10 13 1007.5 1007.5 1.0
23/06:00pm 32.9 32.6 20.4 47 8.3 N 22 32 12 17 1007.1 1007.1 1.0
23/05:30pm 33.2 34.0 21.4 50 8.0 N 19 28 10 15 1007.1 1007.1 1.0
23/05:00pm 34.0 33.7 21.1 47 8.7 N 24 32 13 17 1006.8 1006.8 1.0
23/04:30pm 33.5 36.6 22.9 53 7.3 ESE 11 15 6 8 1006.5 1006.5 1.0
23/04:00pm 32.0 35.6 24.3 63 5.4 ESE 13 20 7 11 1006.2 1006.2 1.0
23/03:30pm 30.0 30.1 23.9 70 4.2 E 30 41 16 22 1005.9 1005.9 1.0
23/03:18pm 32.8 32.2 22.6 55 7.0 ENE 30 48 16 26 1005.9 1005.9 0.0
23/03:13pm 35.2 31.8 19.9 40 10.2 NE 37 48 20 26 1005.8 1005.8 0.0
23/03:00pm 38.3 35.3 17.7 30 13.5 E 30 37 16 20 1005.7 1005.7 0.0
23/02:30pm 40.5 40.1 20.1 30 13.8 NNW 22 35 12 19 1005.2 1005.2 0.0
23/02:00pm 41.3 41.1 18.5 26 15.2 N 17 20 9 11 1005.5 1005.5 0.0
23/01:30pm 40.7 40.9 18.6 27 14.7 NW 15 20 8 11 1006.0 1006.0 0.0
23/01:00pm 39.2 38.4 18.4 29 13.8 N 20 28 11 15 1006.8 1006.8 0.0
23/12:30pm 39.6 40.1 19.3 30 13.6 NW 15 22 8 12 1007.4 1007.4 0.0
23/12:00pm 38.1 39.3 19.0 32 12.7 NW 11 20 6 11 1008.1 1008.1 0.0
23/11:30am 38.6 40.2 19.9 33 12.6 NW 11 20 6 11 1008.6 1008.6 0.0
23/11:00am 37.4 39.6 19.3 34 12.1 SW 6 13 3 7 1009.1 1009.1 0.0
23/10:30am 36.3 38.2 19.7 37 11.1 NW 9 11 5 6 1009.5 1009.5 0.0
23/10:00am 36.2 38.0 20.4 39 10.6 SW 11 17 6 9 1010.0 1010.0 0.0
23/09:30am 35.1 36.8 20.2 41 10.0 NNW 11 15 6 8 1010.5 1010.5 0.0
23/09:00am 33.5 36.2 20.3 46 8.8 WSW 6 11 3 6 1010.8 1010.8 2.6
23/08:30am 33.3 36.2 21.1 48 8.2 NW 7 13 4 7 1010.8 1010.8 2.6
23/08:00am 32.4 35.5 21.0 51 7.7 ESE 6 9 3 5 1010.8 1010.8 2.6
23/07:30am 31.2 35.1 21.9 57 6.3 NW 4 9 2 5 1010.7 1010.7 2.6
23/07:00am 30.2 34.2 22.1 62 5.5 WSW 4 9 2 5 1010.5 1010.5 2.6
23/06:30am 29.4 32.6 22.4 66 4.7 WSW 9 11 5 6 1010.2 1010.2 2.6
23/06:00am 29.0 31.5 22.5 68 4.4 W 13 17 7 9 1010.0 1010.0 2.6
23/05:30am 28.6 31.2 22.6 70 4.1 W 13 17 7 9 1009.5 1009.5 2.6
23/05:00am 27.6 32.1 24.0 81 2.5 NW 7 11 4 6 1009.1 1009.1 2.6
23/04:30am 27.5 31.6 23.9 81 2.5 NW 9 11 5 6 1008.8 1008.8 2.6

Other Formats:

Comma delimited format used in spreadsheet applications
http://www.bom.gov.au/fwo/IDW60801/IDW60801.95214.axf

JavaScript Object Notation format (JSON) in row-major order
http://www.bom.gov.au/fwo/IDW60801/IDW60801.95214.json